Time;durP1;ratioP1;P1;durP2;ratioP2;P2;SDS_P1;SDS_P2;PMS_P1;PMS_P2;Temp;Humidity;BMP_temperature;BMP_pressure;BME280_temperature;BME280_humidity;BME280_pressure;Samples;Min_cycle;Max_cycle;Signal;HPM_P1;HPM_P2
2023/05/16 00:02:21;;;;;;;4.57;1.05;;;;;;;;;;4950226;28;93777;-81
2023/05/16 00:04:48;;;;;;;5.28;1.30;;;;;;;;;;4949479;28;92601;-80
2023/05/16 00:07:15;;;;;;;3.70;1.20;;;;;;;;;;4951758;28;92930;-80
2023/05/16 00:09:41;;;;;;;4.78;1.10;;;;;;;;;;4950703;28;92630;-81
2023/05/16 00:12:08;;;;;;;3.08;1.00;;;;;;;;;;4949320;28;93605;-81
2023/05/16 00:14:35;;;;;;;3.70;1.02;;;;;;;;;;4949924;28;92461;-81
2023/05/16 00:17:03;;;;;;;4.20;1.30;;;;;;;;;;4950830;28;92467;-81
2023/05/16 00:19:30;;;;;;;2.55;1.00;;;;;;;;;;4949636;28;93058;-81
2023/05/16 00:21:57;;;;;;;3.05;1.10;;;;;;;;;;4948211;28;95807;-81
2023/05/16 00:24:25;;;;;;;3.33;1.00;;;;;;;;;;4950387;28;95072;-82
2023/05/16 00:26:51;;;;;;;4.00;1.20;;;;;;;;;;4949444;28;97674;-81
2023/05/16 00:29:19;;;;;;;4.90;1.10;;;;;;;;;;4950920;28;92515;-81
2023/05/16 00:31:45;;;;;;;4.10;1.20;;;;;;;;;;4950284;28;93152;-82
2023/05/16 00:34:12;;;;;;;3.35;1.10;;;;;;;;;;4950306;28;92421;-82
2023/05/16 00:36:38;;;;;;;3.50;1.00;;;;;;;;;;4949665;28;92769;-82
2023/05/16 00:39:06;;;;;;;4.22;1.20;;;;;;;;;;4949916;28;92637;-82
2023/05/16 00:41:33;;;;;;;4.55;1.00;;;;;;;;;;4950374;28;92988;-81
2023/05/16 00:44:00;;;;;;;2.50;0.93;;;;;;;;;;4948694;28;95335;-80
2023/05/16 00:46:26;;;;;;;2.72;0.90;;;;;;;;;;4948058;28;95750;-80
2023/05/16 00:48:53;;;;;;;3.08;1.10;;;;;;;;;;4954327;28;93093;-81
2023/05/16 00:51:19;;;;;;;3.97;1.00;;;;;;;;;;4952902;28;92492;-81
2023/05/16 00:53:46;;;;;;;4.28;1.27;;;;;;;;;;4946998;28;93543;-81
2023/05/16 00:56:13;;;;;;;4.00;1.10;;;;;;;;;;4950983;28;92838;-82
2023/05/16 00:58:40;;;;;;;3.00;1.05;;;;;;;;;;4949187;28;93165;-81
2023/05/16 01:01:06;;;;;;;2.80;1.02;;;;;;;;;;4951430;28;92546;-81
2023/05/16 01:03:34;;;;;;;3.75;1.10;;;;;;;;;;4950289;28;93215;-82
2023/05/16 01:06:00;;;;;;;3.53;1.10;;;;;;;;;;4950946;28;94144;-81
2023/05/16 01:08:27;;;;;;;5.70;1.40;;;;;;;;;;4959946;28;92533;-80
2023/05/16 01:10:59;;;;;;;4.50;1.00;;;;;;;;;;4958562;28;95211;-81
2023/05/16 01:13:26;;;;;;;4.80;1.23;;;;;;;;;;4939032;28;93083;-81
2023/05/16 01:15:58;;;;;;;4.10;1.20;;;;;;;;;;4949508;28;93189;-81
2023/05/16 01:18:30;;;;;;;3.22;1.10;;;;;;;;;;4948872;28;93189;-80
2023/05/16 01:20:59;;;;;;;3.03;1.00;;;;;;;;;;4948138;28;94591;-81
2023/05/16 01:23:45;;;;;;;5.13;1.10;;;;;;;;;;4947504;28;93181;-81
2023/05/16 01:26:18;;;;;;;4.57;1.10;;;;;;;;;;4947815;28;95729;-81
2023/05/16 01:28:45;;;;;;;4.80;1.00;;;;;;;;;;4948705;28;92879;-80
2023/05/16 01:31:12;;;;;;;3.88;0.93;;;;;;;;;;4949548;28;93936;-81
2023/05/16 01:33:39;;;;;;;3.83;1.00;;;;;;;;;;4951550;28;94203;-81
2023/05/16 01:36:21;;;;;;;4.47;1.00;;;;;;;;;;4944371;28;95705;-81
2023/05/16 01:38:56;;;;;;;2.63;1.00;;;;;;;;;;4948345;28;93168;-80
2023/05/16 01:41:49;;;;;;;3.78;1.10;;;;;;;;;;4947689;28;92461;-81
2023/05/16 01:44:18;;;;;;;3.33;1.02;;;;;;;;;;4945474;28;92564;-81
2023/05/16 01:46:45;;;;;;;3.10;1.10;;;;;;;;;;4947789;28;93090;-80
2023/05/16 01:49:16;;;;;;;5.40;1.20;;;;;;;;;;4946937;28;92616;-81
2023/05/16 01:51:49;;;;;;;3.45;1.20;;;;;;;;;;4948622;28;92511;-80
2023/05/16 01:54:17;;;;;;;3.95;0.90;;;;;;;;;;4949247;28;92267;-81
2023/05/16 01:56:50;;;;;;;4.18;1.17;;;;;;;;;;4948567;28;93703;-80
2023/05/16 01:59:17;;;;;;;3.05;0.95;;;;;;;;;;4947479;28;95271;-80
2023/05/16 02:01:44;;;;;;;;;;;;;;;;;;4947556;28;95345;-80
2023/05/16 02:04:12;;;;;;;4.38;1.00;;;;;;;;;;4949709;28;104556;-81
2023/05/16 02:06:41;;;;;;;4.22;1.10;;;;;;;;;;4926046;28;93028;-80
2023/05/16 02:09:07;;;;;;;4.07;1.05;;;;;;;;;;4961836;28;92458;-81
2023/05/16 02:11:34;;;;;;;5.35;1.10;;;;;;;;;;4946901;28;95820;-80
2023/05/16 02:14:00;;;;;;;2.67;0.75;;;;;;;;;;4948579;28;93395;-80
2023/05/16 02:16:29;;;;;;;3.33;1.02;;;;;;;;;;4946230;28;92516;-80
2023/05/16 02:18:57;;;;;;;4.85;1.10;;;;;;;;;;4944730;28;95596;-80
2023/05/16 02:21:24;;;;;;;5.28;1.05;;;;;;;;;;4949003;28;92489;-81
2023/05/16 02:23:50;;;;;;;4.57;1.20;;;;;;;;;;4946193;28;94027;-81
2023/05/16 02:26:17;;;;;;;4.00;0.90;;;;;;;;;;4948025;28;95597;-81
2023/05/16 02:28:43;;;;;;;4.28;0.90;;;;;;;;;;4950718;28;92877;-81
2023/05/16 02:31:10;;;;;;;2.53;0.90;;;;;;;;;;4951459;28;93320;-81
2023/05/16 02:33:37;;;;;;;5.05;1.00;;;;;;;;;;4949748;28;96017;-81
2023/05/16 02:36:03;;;;;;;4.57;1.05;;;;;;;;;;4952473;28;92993;-81
2023/05/16 02:38:30;;;;;;;4.43;1.02;;;;;;;;;;4953622;28;92711;-81
2023/05/16 02:40:56;;;;;;;3.47;1.15;;;;;;;;;;4952229;28;92537;-80
2023/05/16 02:43:23;;;;;;;4.20;1.10;;;;;;;;;;4952317;28;92603;-80
2023/05/16 02:45:49;;;;;;;4.18;1.00;;;;;;;;;;4951746;28;93640;-80
2023/05/16 02:48:16;;;;;;;3.70;1.00;;;;;;;;;;4951427;28;100078;-81
2023/05/16 02:50:42;;;;;;;3.30;1.00;;;;;;;;;;4947890;28;94973;-80
2023/05/16 02:53:09;;;;;;;3.05;1.00;;;;;;;;;;4949557;28;94023;-80
2023/05/16 02:55:36;;;;;;;3.70;0.82;;;;;;;;;;4950040;28;92531;-81
2023/05/16 02:58:03;;;;;;;3.92;1.05;;;;;;;;;;4950263;28;93042;-81
2023/05/16 03:00:29;;;;;;;2.63;0.90;;;;;;;;;;4941885;28;95376;-80
2023/05/16 03:02:56;;;;;;;3.15;0.95;;;;;;;;;;4952265;28;93035;-80
2023/05/16 03:05:23;;;;;;;4.80;1.00;;;;;;;;;;4951428;28;93755;-80
2023/05/16 03:07:52;;;;;;;2.78;0.90;;;;;;;;;;4952068;28;92308;-82
2023/05/16 03:10:20;;;;;;;1.77;0.80;;;;;;;;;;4951629;28;93079;-82
2023/05/16 03:12:47;;;;;;;2.65;0.77;;;;;;;;;;4949754;28;94314;-83
2023/05/16 03:15:13;;;;;;;3.53;0.93;;;;;;;;;;4943048;28;95424;-81
2023/05/16 03:17:40;;;;;;;3.53;0.90;;;;;;;;;;4954241;28;96689;-80
2023/05/16 03:20:08;;;;;;;2.90;1.27;;;;;;;;;;4952946;28;93892;-81
2023/05/16 03:22:34;;;;;;;;;;;;;;;;;;4952163;28;92912;-81
2023/05/16 03:25:01;;;;;;;2.55;0.80;;;;;;;;;;4952717;28;93186;-80
2023/05/16 03:27:29;;;;;;;4.00;0.82;;;;;;;;;;4950434;28;92404;-81
2023/05/16 03:29:57;;;;;;;4.32;1.00;;;;;;;;;;4949338;28;95576;-80
2023/05/16 03:32:24;;;;;;;3.95;0.90;;;;;;;;;;4951323;28;92902;-80
2023/05/16 03:34:51;;;;;;;3.38;1.00;;;;;;;;;;4950577;28;92558;-80
2023/05/16 03:37:18;;;;;;;5.55;1.23;;;;;;;;;;4948634;28;93065;-80
2023/05/16 03:39:44;;;;;;;4.20;1.20;;;;;;;;;;4946898;28;98335;-80
2023/05/16 03:42:11;;;;;;;4.28;1.00;;;;;;;;;;4947642;28;92538;-80
2023/05/16 03:44:37;;;;;;;3.35;1.10;;;;;;;;;;4953422;28;93030;-80
2023/05/16 03:47:05;;;;;;;3.83;1.02;;;;;;;;;;4948935;28;93022;-80
2023/05/16 03:49:31;;;;;;;4.93;1.20;;;;;;;;;;4950980;28;94349;-81
2023/05/16 03:51:58;;;;;;;4.43;1.00;;;;;;;;;;4948672;28;96412;-80
2023/05/16 03:54:24;;;;;;;3.10;1.05;;;;;;;;;;4948880;28;92661;-81
2023/05/16 03:56:51;;;;;;;3.90;0.80;;;;;;;;;;4944442;28;99581;-80
2023/05/16 03:59:17;;;;;;;3.53;0.98;;;;;;;;;;4948929;28;93429;-80
2023/05/16 04:01:44;;;;;;;3.60;0.90;;;;;;;;;;4949754;28;92449;-81
2023/05/16 04:04:10;;;;;;;3.30;1.00;;;;;;;;;;4948734;28;95007;-81
2023/05/16 04:06:37;;;;;;;2.50;0.70;;;;;;;;;;4952437;28;93005;-80
2023/05/16 04:09:03;;;;;;;2.78;0.80;;;;;;;;;;4950228;28;93096;-81
2023/05/16 04:11:30;;;;;;;3.13;0.88;;;;;;;;;;4947683;28;96065;-79
2023/05/16 04:13:58;;;;;;;3.20;0.80;;;;;;;;;;4950003;28;92498;-82
2023/05/16 04:16:25;;;;;;;5.82;1.30;;;;;;;;;;4948232;28;93003;-81
2023/05/16 04:18:51;;;;;;;3.17;0.93;;;;;;;;;;4949000;28;98962;-80
2023/05/16 04:21:18;;;;;;;4.03;1.40;;;;;;;;;;4950314;28;91725;-80
2023/05/16 04:23:45;;;;;;;2.97;0.88;;;;;;;;;;4933610;28;92651;-81
2023/05/16 04:26:13;;;;;;;4.70;1.00;;;;;;;;;;4941912;28;92981;-80
2023/05/16 04:28:40;;;;;;;1.63;0.70;;;;;;;;;;4950249;28;95036;-81
2023/05/16 04:31:07;;;;;;;3.80;1.10;;;;;;;;;;4950051;28;92977;-81
2023/05/16 04:33:33;;;;;;;3.40;0.80;;;;;;;;;;4950028;28;92869;-82
2023/05/16 04:36:00;;;;;;;4.53;0.85;;;;;;;;;;4949814;28;92660;-81
2023/05/16 04:38:26;;;;;;;3.72;1.00;;;;;;;;;;4948921;28;93184;-81
2023/05/16 04:40:53;;;;;;;3.53;1.00;;;;;;;;;;4949775;28;92869;-80
2023/05/16 04:43:20;;;;;;;4.03;0.95;;;;;;;;;;4947498;28;95726;-81
2023/05/16 04:45:47;;;;;;;4.20;0.90;;;;;;;;;;4950235;28;92799;-80
2023/05/16 04:48:14;;;;;;;2.45;0.80;;;;;;;;;;4952787;28;92850;-80
2023/05/16 04:50:40;;;;;;;2.38;0.90;;;;;;;;;;4948136;28;93639;-80
2023/05/16 04:53:07;;;;;;;2.83;0.80;;;;;;;;;;4948296;28;95366;-81
2023/05/16 04:55:33;;;;;;;3.10;0.80;;;;;;;;;;4950598;28;95036;-81
2023/05/16 04:58:00;;;;;;;3.92;0.80;;;;;;;;;;4949598;28;94037;-81
2023/05/16 05:00:27;;;;;;;3.95;1.00;;;;;;;;;;4950066;28;92525;-79
2023/05/16 05:02:53;;;;;;;2.90;0.90;;;;;;;;;;4949500;28;92569;-80
2023/05/16 05:05:20;;;;;;;3.30;0.90;;;;;;;;;;4951066;28;93881;-81
2023/05/16 05:07:47;;;;;;;3.47;1.00;;;;;;;;;;4949349;28;92605;-82
2023/05/16 05:10:14;;;;;;;5.00;1.15;;;;;;;;;;4952975;28;92815;-81
2023/05/16 05:12:40;;;;;;;4.55;1.02;;;;;;;;;;4949103;28;92839;-80
2023/05/16 05:15:07;;;;;;;2.63;0.93;;;;;;;;;;4949844;28;92764;-80
2023/05/16 05:17:34;;;;;;;3.78;1.00;;;;;;;;;;4947993;28;95248;-81
2023/05/16 05:20:01;;;;;;;3.05;1.05;;;;;;;;;;4949442;28;93101;-80
2023/05/16 05:22:28;;;;;;;3.72;0.80;;;;;;;;;;4948768;28;93004;-80
2023/05/16 05:24:55;;;;;;;3.78;1.00;;;;;;;;;;4948330;28;93245;-81
2023/05/16 05:27:21;;;;;;;3.67;1.10;;;;;;;;;;4949937;28;92510;-81
2023/05/16 05:29:48;;;;;;;2.58;0.80;;;;;;;;;;4950397;28;93302;-81
2023/05/16 05:32:15;;;;;;;3.38;1.30;;;;;;;;;;4952977;28;93250;-81
2023/05/16 05:34:42;;;;;;;2.88;0.90;;;;;;;;;;4949405;28;92714;-80
2023/05/16 05:37:08;;;;;;;2.25;0.80;;;;;;;;;;4950255;28;93063;-80
2023/05/16 05:39:35;;;;;;;2.67;1.00;;;;;;;;;;4951461;28;93320;-81
2023/05/16 05:42:02;;;;;;;3.33;1.13;;;;;;;;;;4948268;28;96141;-82
2023/05/16 05:44:29;;;;;;;5.95;1.00;;;;;;;;;;4953814;28;93428;-80
2023/05/16 05:46:56;;;;;;;2.85;0.90;;;;;;;;;;4949106;28;92510;-80
2023/05/16 05:49:23;;;;;;;3.13;1.00;;;;;;;;;;4944051;28;92421;-81
2023/05/16 05:51:51;;;;;;;3.03;0.80;;;;;;;;;;4949013;28;93036;-81
2023/05/16 05:54:18;;;;;;;2.95;0.85;;;;;;;;;;4952185;28;92580;-81
2023/05/16 05:56:44;;;;;;;2.63;1.00;;;;;;;;;;4946327;28;96127;-80
2023/05/16 05:59:11;;;;;;;1.65;0.80;;;;;;;;;;4949572;28;92164;-80
2023/05/16 06:01:38;;;;;;;4.50;0.80;;;;;;;;;;4951209;28;92490;-81
2023/05/16 06:04:05;;;;;;;4.05;1.08;;;;;;;;;;4952130;28;93117;-81
2023/05/16 06:06:31;;;;;;;3.33;1.00;;;;;;;;;;4950572;28;95514;-80
2023/05/16 06:08:58;;;;;;;4.72;1.00;;;;;;;;;;4952628;28;93891;-81
2023/05/16 06:11:24;;;;;;;1.92;0.80;;;;;;;;;;4952445;28;93882;-80
2023/05/16 06:13:51;;;;;;;2.30;0.90;;;;;;;;;;4952822;28;92461;-80
2023/05/16 06:16:17;;;;;;;4.03;1.20;;;;;;;;;;4955563;28;92384;-81
2023/05/16 06:18:44;;;;;;;3.60;0.82;;;;;;;;;;4952466;28;92693;-81
2023/05/16 06:21:11;;;;;;;3.50;0.80;;;;;;;;;;4952562;28;99937;-81
2023/05/16 06:23:37;;;;;;;3.00;0.90;;;;;;;;;;4954186;28;92484;-80
2023/05/16 06:26:04;;;;;;;2.25;0.77;;;;;;;;;;4952484;28;92594;-82
2023/05/16 06:28:30;;;;;;;2.70;0.90;;;;;;;;;;4956985;28;95510;-81
2023/05/16 06:30:57;;;;;;;3.33;0.88;;;;;;;;;;4951591;28;95161;-82
2023/05/16 06:33:23;;;;;;;1.70;0.60;;;;;;;;;;4933812;28;92932;-82
2023/05/16 06:35:51;;;;;;;2.78;0.95;;;;;;;;;;4956272;28;93567;-82
2023/05/16 06:38:18;;;;;;;1.90;0.70;;;;;;;;;;4954962;28;93765;-82
2023/05/16 06:40:45;;;;;;;2.35;0.70;;;;;;;;;;4951404;28;92530;-82
2023/05/16 06:43:11;;;;;;;2.88;0.75;;;;;;;;;;4949371;28;95619;-82
2023/05/16 06:45:38;;;;;;;1.98;0.82;;;;;;;;;;4951471;28;92736;-82
2023/05/16 06:48:06;;;;;;;2.28;0.70;;;;;;;;;;4952172;28;92770;-82
2023/05/16 06:50:34;;;;;;;3.33;0.80;;;;;;;;;;4950713;28;94385;-81
2023/05/16 06:53:01;;;;;;;2.28;0.90;;;;;;;;;;4950585;28;92464;-82
2023/05/16 06:55:27;;;;;;;2.65;0.80;;;;;;;;;;4957545;28;94969;-82
2023/05/16 06:57:54;;;;;;;3.58;1.02;;;;;;;;;;4968453;28;93049;-82
2023/05/16 07:00:23;;;;;;;1.98;0.70;;;;;;;;;;4954695;28;92759;-82
2023/05/16 07:02:50;;;;;;;2.08;0.90;;;;;;;;;;4968302;28;92549;-82
2023/05/16 07:05:17;;;;;;;3.47;0.93;;;;;;;;;;4962959;28;92470;-82
2023/05/16 07:07:44;;;;;;;2.30;0.65;;;;;;;;;;4968490;28;92969;-82
2023/05/16 07:10:11;;;;;;;2.17;0.73;;;;;;;;;;4969842;28;93303;-82
2023/05/16 07:12:40;;;;;;;2.72;0.80;;;;;;;;;;4956077;28;92050;-81
2023/05/16 07:15:07;;;;;;;2.90;0.90;;;;;;;;;;4973903;28;92471;-81
2023/05/16 07:17:33;;;;;;;3.15;0.85;;;;;;;;;;4971491;28;93232;-82
2023/05/16 07:20:00;;;;;;;2.88;0.82;;;;;;;;;;4971949;28;94938;-81
2023/05/16 07:22:30;;;;;;;2.80;0.73;;;;;;;;;;4951605;28;93744;-82
2023/05/16 07:24:59;;;;;;;3.35;0.77;;;;;;;;;;4953549;28;92900;-82
2023/05/16 07:27:26;;;;;;;2.25;0.70;;;;;;;;;;4949775;28;95643;-81
2023/05/16 07:29:53;;;;;;;3.03;0.70;;;;;;;;;;4949866;28;93254;-82
2023/05/16 07:32:19;;;;;;;3.38;0.85;;;;;;;;;;4954775;28;92496;-81
2023/05/16 07:34:46;;;;;;;3.85;0.75;;;;;;;;;;4953347;28;94074;-82
2023/05/16 07:37:14;;;;;;;2.72;0.70;;;;;;;;;;4955154;28;92062;-82
2023/05/16 07:39:41;;;;;;;3.30;0.80;;;;;;;;;;4953963;28;92757;-80
2023/05/16 07:42:08;;;;;;;2.50;0.70;;;;;;;;;;4955836;28;93097;-80
2023/05/16 07:44:34;;;;;;;2.55;0.75;;;;;;;;;;4949857;28;95002;-81
2023/05/16 07:47:01;;;;;;;3.03;0.70;;;;;;;;;;4951789;28;95393;-80
2023/05/16 07:49:28;;;;;;;3.55;0.88;;;;;;;;;;4951719;28;94158;-80
2023/05/16 07:51:54;;;;;;;2.72;0.73;;;;;;;;;;4953765;28;92494;-80
2023/05/16 07:54:21;;;;;;;3.42;0.73;;;;;;;;;;4953749;28;100086;-81
2023/05/16 07:56:47;;;;;;;1.85;0.60;;;;;;;;;;4946708;28;93111;-81
2023/05/16 07:59:14;;;;;;;2.85;0.65;;;;;;;;;;4955217;28;92580;-80
2023/05/16 08:01:41;;;;;;;4.10;0.90;;;;;;;;;;4952692;28;92657;-81
2023/05/16 08:04:07;;;;;;;3.50;1.05;;;;;;;;;;4954767;28;93417;-81
2023/05/16 08:06:34;;;;;;;1.60;0.55;;;;;;;;;;4952060;28;93255;-81
2023/05/16 08:09:00;;;;;;;2.80;0.80;;;;;;;;;;4950162;28;95496;-81
2023/05/16 08:11:27;;;;;;;1.90;0.77;;;;;;;;;;4950524;28;92467;-82
2023/05/16 08:13:54;;;;;;;4.25;0.80;;;;;;;;;;4951017;28;92821;-82
2023/05/16 08:16:20;;;;;;;3.20;0.68;;;;;;;;;;4949977;28;94162;-82
2023/05/16 08:18:47;;;;;;;3.38;0.68;;;;;;;;;;4949490;28;99571;-82
2023/05/16 08:21:15;;;;;;;2.03;0.73;;;;;;;;;;4950290;28;92749;-82
2023/05/16 08:23:42;;;;;;;2.58;0.70;;;;;;;;;;4948747;28;93415;-82
2023/05/16 08:26:08;;;;;;;1.67;0.80;;;;;;;;;;4953640;28;92473;-82
2023/05/16 08:28:35;;;;;;;1.98;0.60;;;;;;;;;;4964210;28;94225;-82
2023/05/16 08:31:02;;;;;;;2.05;0.63;;;;;;;;;;4970158;28;92604;-82
2023/05/16 08:33:28;;;;;;;1.73;0.60;;;;;;;;;;4964085;28;95728;-82
2023/05/16 08:35:55;;;;;;;3.40;0.82;;;;;;;;;;4956041;28;93044;-82
2023/05/16 08:38:21;;;;;;;1.75;0.68;;;;;;;;;;4963856;28;92685;-81
2023/05/16 08:40:48;;;;;;;2.83;0.70;;;;;;;;;;4971125;28;94498;-82
2023/05/16 08:43:15;;;;;;;2.47;0.63;;;;;;;;;;4968771;28;93080;-82
2023/05/16 08:45:42;;;;;;;2.03;0.70;;;;;;;;;;4943477;28;92764;-82
2023/05/16 08:48:09;;;;;;;3.10;0.70;;;;;;;;;;4950856;28;95618;-82
2023/05/16 08:50:36;;;;;;;2.03;0.70;;;;;;;;;;4939438;28;94650;-81
2023/05/16 08:53:07;;;;;;;2.60;0.80;;;;;;;;;;4949228;28;92512;-82
2023/05/16 08:55:34;;;;;;;2.83;0.70;;;;;;;;;;4947889;28;93928;-82
2023/05/16 08:58:04;;;;;;;2.13;0.80;;;;;;;;;;4946445;28;94920;-82
2023/05/16 09:00:30;;;;;;;1.65;0.63;;;;;;;;;;4948965;28;95221;-81
2023/05/16 09:02:57;;;;;;;1.00;0.60;;;;;;;;;;4950217;28;93206;-81
2023/05/16 09:05:24;;;;;;;2.58;0.82;;;;;;;;;;4948788;28;92402;-82
2023/05/16 09:07:51;;;;;;;1.80;0.60;;;;;;;;;;4951828;28;93072;-82
2023/05/16 09:10:18;;;;;;;2.33;0.60;;;;;;;;;;4949050;28;92490;-82
2023/05/16 09:12:44;;;;;;;1.23;0.70;;;;;;;;;;4946790;28;92946;-80
2023/05/16 09:15:11;;;;;;;2.65;0.65;;;;;;;;;;4949834;28;92375;-81
2023/05/16 09:17:43;;;;;;;2.45;0.70;;;;;;;;;;4949119;28;92437;-81
2023/05/16 09:20:11;;;;;;;1.65;0.50;;;;;;;;;;4947180;28;94117;-81
2023/05/16 09:22:39;;;;;;;1.90;0.60;;;;;;;;;;4944649;28;98144;-82
2023/05/16 09:25:05;;;;;;;;;;;;;;;;;;4949644;28;92548;-81
2023/05/16 09:27:43;;;;;;;;;;;;;;;;;;4951428;28;92927;-80
2023/05/16 09:30:13;;;;;;;3.45;0.60;;;;;;;;;;4966194;28;96772;-80
2023/05/16 09:32:42;;;;;;;2.05;0.70;;;;;;;;;;4950883;28;93918;-80
2023/05/16 09:35:09;;;;;;;4.15;0.77;;;;;;;;;;4942118;28;93099;-80
2023/05/16 09:37:36;;;;;;;2.10;0.50;;;;;;;;;;4969054;28;92573;-80
2023/05/16 09:40:03;;;;;;;2.42;0.60;;;;;;;;;;4969536;28;93391;-81
2023/05/16 09:42:30;;;;;;;2.38;0.70;;;;;;;;;;4968878;28;93304;-81
2023/05/16 09:44:57;;;;;;;2.80;0.70;;;;;;;;;;4970342;28;92547;-81
2023/05/16 09:47:26;;;;;;;2.58;0.60;;;;;;;;;;4964357;28;94970;-82
2023/05/16 09:49:53;;;;;;;2.15;0.57;;;;;;;;;;4960887;28;93715;-81
2023/05/16 09:52:20;;;;;;;2.22;0.70;;;;;;;;;;4969457;28;92481;-81
2023/05/16 09:54:50;;;;;;;2.42;0.80;;;;;;;;;;4969142;28;93400;-81
2023/05/16 09:57:17;;;;;;;2.20;0.50;;;;;;;;;;4963589;28;92985;-81
2023/05/16 09:59:43;;;;;;;;;;;;;;;;;;4970213;28;92807;-81
2023/05/16 10:02:11;;;;;;;1.92;0.60;;;;;;;;;;4962834;28;96463;-81
2023/05/16 10:04:38;;;;;;;1.83;0.50;;;;;;;;;;4966088;28;92138;-82
2023/05/16 10:07:05;;;;;;;1.88;0.65;;;;;;;;;;4949701;28;95064;-82
2023/05/16 10:09:32;;;;;;;1.60;0.60;;;;;;;;;;4967830;28;95829;-83
2023/05/16 10:12:02;;;;;;;3.88;0.70;;;;;;;;;;4957023;28;96447;-82
2023/05/16 10:14:33;;;;;;;2.08;0.50;;;;;;;;;;4952135;28;94950;-82
2023/05/16 10:17:00;;;;;;;1.92;0.70;;;;;;;;;;4941556;28;92398;-81
2023/05/16 10:19:28;;;;;;;1.85;0.70;;;;;;;;;;4950908;28;93402;-81
2023/05/16 10:21:59;;;;;;;1.02;0.50;;;;;;;;;;4949598;28;93766;-82
2023/05/16 10:24:28;;;;;;;3.15;0.60;;;;;;;;;;4950130;28;92556;-81
2023/05/16 10:26:55;;;;;;;2.42;0.60;;;;;;;;;;4950602;28;97080;-81
2023/05/16 10:29:22;;;;;;;1.13;0.50;;;;;;;;;;4950591;28;91695;-81
2023/05/16 10:31:49;;;;;;;;;;;;;;;;;;4949094;28;92454;-81
2023/05/16 10:34:16;;;;;;;1.08;0.50;;;;;;;;;;4954683;28;105022;-81
2023/05/16 10:36:45;;;;;;;2.50;0.70;;;;;;;;;;4940684;28;95561;-81
2023/05/16 10:39:12;;;;;;;1.45;0.50;;;;;;;;;;4952888;28;95247;-81
2023/05/16 10:41:41;;;;;;;1.98;0.50;;;;;;;;;;4949901;28;93792;-82
2023/05/16 10:44:16;;;;;;;2.35;0.60;;;;;;;;;;4950461;28;92578;-83
2023/05/16 10:46:43;;;;;;;0.88;0.40;;;;;;;;;;4948937;28;92916;-81
2023/05/16 10:49:23;;;;;;;2.13;0.60;;;;;;;;;;4950826;28;94014;-81
2023/05/16 10:52:08;;;;;;;1.13;0.50;;;;;;;;;;4951566;28;92427;-81
2023/05/16 10:54:38;;;;;;;2.58;0.80;;;;;;;;;;4952075;28;92607;-82
2023/05/16 10:57:05;;;;;;;1.95;0.55;;;;;;;;;;4951617;28;92982;-82
2023/05/16 10:59:45;;;;;;;2.97;0.60;;;;;;;;;;4954478;28;92790;-83
2023/05/16 11:02:22;;;;;;;2.70;0.55;;;;;;;;;;4949865;28;95730;-82
2023/05/16 11:04:52;;;;;;;1.85;0.50;;;;;;;;;;4950019;28;92539;-83
2023/05/16 11:07:20;;;;;;;2.03;0.50;;;;;;;;;;4951789;28;93068;-83
2023/05/16 11:10:04;;;;;;;1.15;0.45;;;;;;;;;;4951530;28;93588;-82
2023/05/16 11:12:41;;;;;;;1.33;0.60;;;;;;;;;;4950424;28;92919;-81
2023/05/16 11:15:17;;;;;;;1.42;0.60;;;;;;;;;;4951387;28;93757;-82
2023/05/16 11:17:44;;;;;;;2.38;0.57;;;;;;;;;;4952853;28;93458;-83
2023/05/16 11:20:30;;;;;;;2.65;0.70;;;;;;;;;;4959027;28;91609;-84
2023/05/16 11:23:20;;;;;;;1.75;0.60;;;;;;;;;;4962911;28;98020;-82
2023/05/16 11:25:50;;;;;;;1.92;0.50;;;;;;;;;;4957034;28;94083;-83
2023/05/16 11:28:18;;;;;;;1.67;0.50;;;;;;;;;;4933248;28;95077;-81
2023/05/16 11:30:45;;;;;;;;;;;;;;;;;;4950723;28;94009;-81
2023/05/16 11:33:12;;;;;;;2.15;0.50;;;;;;;;;;4954060;28;96809;-81
2023/05/16 11:35:38;;;;;;;3.05;0.50;;;;;;;;;;4951091;28;93869;-82
2023/05/16 11:38:05;;;;;;;2.42;0.60;;;;;;;;;;4950623;28;93014;-81
2023/05/16 11:40:32;;;;;;;1.52;0.52;;;;;;;;;;4944454;28;92573;-82
2023/05/16 11:42:59;;;;;;;1.75;0.40;;;;;;;;;;4953743;28;92940;-82
2023/05/16 11:45:26;;;;;;;0.82;0.50;;;;;;;;;;4951788;28;95110;-81
2023/05/16 11:47:53;;;;;;;5.15;0.80;;;;;;;;;;4951709;28;92740;-82
2023/05/16 11:50:22;;;;;;;2.03;0.52;;;;;;;;;;4950711;28;93194;-83
2023/05/16 11:52:52;;;;;;;2.40;0.65;;;;;;;;;;4949016;28;94988;-81
2023/05/16 11:55:23;;;;;;;3.03;0.60;;;;;;;;;;4950812;28;95505;-82
2023/05/16 11:58:07;;;;;;;1.40;0.60;;;;;;;;;;4946341;28;93522;-81
2023/05/16 12:00:34;;;;;;;2.92;0.70;;;;;;;;;;4950656;28;93119;-82
2023/05/16 12:03:03;;;;;;;3.05;0.80;;;;;;;;;;4955756;28;93007;-82
2023/05/16 12:05:31;;;;;;;2.20;0.60;;;;;;;;;;4954422;28;93060;-83
2023/05/16 12:07:59;;;;;;;1.17;0.60;;;;;;;;;;4940325;28;93181;-82
2023/05/16 12:10:25;;;;;;;2.33;0.60;;;;;;;;;;4950658;28;93400;-82
2023/05/16 12:12:53;;;;;;;2.20;0.70;;;;;;;;;;4985992;28;93040;-82
2023/05/16 12:15:20;;;;;;;;;;;;;;;;;;4975617;28;92848;-82
2023/05/16 12:17:47;;;;;;;1.85;0.73;;;;;;;;;;4976058;28;115187;-83
2023/05/16 12:20:15;;;;;;;1.85;0.60;;;;;;;;;;4976308;28;92417;-82
2023/05/16 12:22:44;;;;;;;2.15;0.47;;;;;;;;;;4961879;28;92783;-83
2023/05/16 12:25:35;;;;;;;1.45;0.63;;;;;;;;;;4973263;28;92462;-83
2023/05/16 12:28:06;;;;;;;1.90;0.63;;;;;;;;;;4961136;28;92425;-83
2023/05/16 12:30:33;;;;;;;2.50;0.73;;;;;;;;;;4968600;28;94050;-83
2023/05/16 12:33:08;;;;;;;1.73;0.65;;;;;;;;;;4971384;28;92402;-83
2023/05/16 12:35:37;;;;;;;2.90;0.73;;;;;;;;;;4957190;28;93063;-83
2023/05/16 12:38:04;;;;;;;1.85;0.80;;;;;;;;;;4958679;28;93245;-83
2023/05/16 12:40:31;;;;;;;2.28;0.60;;;;;;;;;;4950319;28;93053;-82
2023/05/16 12:42:57;;;;;;;3.05;0.73;;;;;;;;;;4952518;28;94905;-82
2023/05/16 12:45:26;;;;;;;2.38;0.60;;;;;;;;;;4945536;28;93604;-83
2023/05/16 12:47:53;;;;;;;1.20;0.45;;;;;;;;;;4954292;28;92552;-83
2023/05/16 12:50:21;;;;;;;2.03;0.80;;;;;;;;;;4949552;28;93876;-83
2023/05/16 12:52:57;;;;;;;1.75;0.75;;;;;;;;;;4950824;28;92572;-82
2023/05/16 12:55:24;;;;;;;2.00;0.50;;;;;;;;;;4950431;28;94309;-83
2023/05/16 12:57:51;;;;;;;2.05;0.60;;;;;;;;;;4955233;28;93274;-82
2023/05/16 13:00:18;;;;;;;2.17;0.50;;;;;;;;;;4955058;28;91723;-82
2023/05/16 13:02:45;;;;;;;;;;;;;;;;;;4942247;28;93042;-83
2023/05/16 13:05:12;;;;;;;2.35;0.60;;;;;;;;;;4951577;28;119145;-83
2023/05/16 13:07:39;;;;;;;2.80;0.70;;;;;;;;;;4950057;28;95078;-83
2023/05/16 13:10:09;;;;;;;2.55;0.70;;;;;;;;;;4953641;28;96043;-82
2023/05/16 13:12:36;;;;;;;1.75;0.60;;;;;;;;;;4945566;28;92633;-82
2023/05/16 13:15:03;;;;;;;2.17;0.60;;;;;;;;;;4949112;28;95306;-83
2023/05/16 13:17:30;;;;;;;3.08;0.60;;;;;;;;;;4950688;28;92568;-83
2023/05/16 13:19:56;;;;;;;3.05;0.60;;;;;;;;;;4949886;28;92533;-83
2023/05/16 13:22:23;;;;;;;1.33;0.50;;;;;;;;;;4950362;28;92704;-83
2023/05/16 13:24:49;;;;;;;2.13;0.70;;;;;;;;;;4949518;28;93682;-83
2023/05/16 13:27:19;;;;;;;1.77;0.90;;;;;;;;;;4948568;28;92524;-83
2023/05/16 13:29:46;;;;;;;1.63;0.70;;;;;;;;;;4950214;28;92968;-83
2023/05/16 13:32:12;;;;;;;2.47;0.80;;;;;;;;;;4950597;28;95878;-83
2023/05/16 13:34:39;;;;;;;2.47;0.70;;;;;;;;;;4949984;28;95108;-83
2023/05/16 13:37:07;;;;;;;2.17;0.68;;;;;;;;;;4949885;28;93004;-83
2023/05/16 13:39:34;;;;;;;2.22;0.70;;;;;;;;;;4948437;28;92691;-83
2023/05/16 13:42:02;;;;;;;2.95;0.70;;;;;;;;;;4950222;28;92829;-83
2023/05/16 13:44:29;;;;;;;2.20;0.70;;;;;;;;;;4949819;28;93007;-83
2023/05/16 13:46:56;;;;;;;3.28;0.70;;;;;;;;;;4949332;28;92461;-83
2023/05/16 13:49:23;;;;;;;2.10;0.50;;;;;;;;;;4948658;28;94083;-83
2023/05/16 13:51:51;;;;;;;1.52;0.60;;;;;;;;;;4949743;28;94081;-83
2023/05/16 13:54:17;;;;;;;1.73;0.60;;;;;;;;;;4954465;28;92547;-83
2023/05/16 13:56:44;;;;;;;1.60;0.50;;;;;;;;;;4941602;28;97592;-83
2023/05/16 13:59:11;;;;;;;1.70;0.70;;;;;;;;;;4947274;28;92397;-83
2023/05/16 14:01:49;;;;;;;3.65;0.95;;;;;;;;;;4949806;28;92767;-84
2023/05/16 14:04:16;;;;;;;0.77;0.40;;;;;;;;;;4948979;28;93951;-83
2023/05/16 14:06:43;;;;;;;1.65;0.50;;;;;;;;;;4938479;28;92584;-83
2023/05/16 14:09:11;;;;;;;2.55;0.50;;;;;;;;;;4950651;28;92444;-83
2023/05/16 14:11:38;;;;;;;1.88;0.50;;;;;;;;;;4951939;28;93057;-83
2023/05/16 14:14:05;;;;;;;2.58;0.80;;;;;;;;;;4950116;28;92270;-83
2023/05/16 14:16:32;;;;;;;3.10;0.75;;;;;;;;;;4954090;28;92507;-83
2023/05/16 14:18:59;;;;;;;3.13;0.70;;;;;;;;;;4947772;28;92735;-83
2023/05/16 14:21:26;;;;;;;2.90;0.73;;;;;;;;;;4950430;28;94860;-83
2023/05/16 14:23:52;;;;;;;3.00;0.85;;;;;;;;;;4952953;28;94198;-83
2023/05/16 14:26:21;;;;;;;2.45;0.80;;;;;;;;;;4958445;28;92507;-82
2023/05/16 14:28:48;;;;;;;3.20;0.80;;;;;;;;;;4956939;28;94081;-82
2023/05/16 14:31:14;;;;;;;4.13;0.82;;;;;;;;;;4960124;28;94273;-82
2023/05/16 14:33:42;;;;;;;2.85;0.70;;;;;;;;;;4961875;28;92632;-82
2023/05/16 14:36:09;;;;;;;2.10;0.57;;;;;;;;;;4963553;28;92970;-82
2023/05/16 14:38:35;;;;;;;2.47;0.80;;;;;;;;;;4980989;28;95393;-83
2023/05/16 14:41:02;;;;;;;3.10;0.70;;;;;;;;;;4983323;28;92456;-83
2023/05/16 14:43:28;;;;;;;1.75;0.50;;;;;;;;;;4971557;28;94249;-82
2023/05/16 14:45:55;;;;;;;2.40;0.73;;;;;;;;;;4969628;28;95030;-82
2023/05/16 14:48:22;;;;;;;2.15;0.85;;;;;;;;;;4972464;28;98068;-83
2023/05/16 14:50:48;;;;;;;2.17;0.50;;;;;;;;;;4962398;28;93619;-82